Accueil
METAR-TAF:

METAR-TAF

Aéroports :

Boscombe Down, Angleterre

latitude: 51-10N, longitude: 001-45W, altitude: 124 m

Observation

Le bulletin a été fait il y a 19 minutes, à 07:50 UTC
Vent 12 kt de nord
Température 15°C
Humidité 72%
Pression 1016 hPa
Visibilité 10 km ou plus
pas de nuages en-dessous de 1500 mètres et pas de cumulonimbus.

METAR: EGDM 220750Z 01012KT CAVOK 15/10 Q1016 BLU NOSIG

Heure: 09:09 (08:09 UTC)

Prévision

Le bulletin a été fait il y a 2 heures et 13 minutes, à 05:56 UTC
Prévision valable du 22 à 07 UTC au 22 à 15 UTC
Vent 10 kt de nord
Visibilité 10 km ou plus
Quelques nuages à une hauteur de 3500 ft
Probabilité 30% :
Temporairement
du 22 à 13 UTC au 22 à 15 UTC
Visibilité: 7000 m
Nuages épars à une hauteur de 3500 ft, Cumulus congestus.
averses de pluie

TAF: EGDM 220556Z 2207/2215 36010KT 9999 FEW035 PROB30 TEMPO 2213/2215 7000 SHRA SCT035TCU

Observations et prévisions météorologiques de plus de 4000 aéroports (messages METAR et TAF).

Les stations disponibles sont représentées par des disques jaunes et rouges sur la carte.

Passer la souris dessus pour voir le nom de la station.

Cliquer dessus pour voir les observations et prévisions météorologiques.

Pour changer de carte: cliquez sur les boutons verts avec une croix noire pour zoomer, sur le bouton vert avec un tiret pour effectuer un zoom arrière, ou sur les flèches vertes pour les cartes adjacentes.


METAR-TAF: